createdAt,value
2024-02-18T00:01:44.954Z,10.07
2024-02-18T00:04:13.425Z,5.68
2024-02-18T00:06:42.194Z,5.68
2024-02-18T00:09:10.240Z,5.30
2024-02-18T00:11:38.492Z,4.47
2024-02-18T00:14:07.197Z,6.28
2024-02-18T00:16:35.584Z,6.10
2024-02-18T00:19:04.026Z,6.30
2024-02-18T00:21:32.458Z,5.13
2024-02-18T00:24:00.557Z,5.20
2024-02-18T00:26:39.745Z,4.78
2024-02-18T00:29:18.432Z,5.38
2024-02-18T00:31:47.111Z,5.78
2024-02-18T00:34:21.647Z,5.95
2024-02-18T00:36:52.093Z,4.95
2024-02-18T00:39:20.845Z,4.30
2024-02-18T00:41:48.918Z,4.68
2024-02-18T00:44:17.118Z,5.70
2024-02-18T00:46:51.196Z,5.10
2024-02-18T00:49:26.204Z,6.57
2024-02-18T00:51:55.080Z,4.60
2024-02-18T00:54:23.245Z,4.28
2024-02-18T00:56:51.991Z,5.45
2024-02-18T00:59:20.487Z,4.93
2024-02-18T01:01:48.768Z,4.32
2024-02-18T01:04:17.338Z,4.75
2024-02-18T01:06:45.678Z,5.43
2024-02-18T01:09:14.281Z,5.03
2024-02-18T01:11:42.347Z,6.07
2024-02-18T01:14:10.477Z,5.18
2024-02-18T01:16:40.924Z,5.57
2024-02-18T01:19:09.125Z,5.47
2024-02-18T01:21:37.730Z,6.10
2024-02-18T01:24:06.016Z,4.88
2024-02-18T01:26:34.325Z,5.40
2024-02-18T01:29:02.780Z,4.75
2024-02-18T01:31:30.745Z,4.90
2024-02-18T01:33:58.935Z,5.25
2024-02-18T01:36:27.317Z,5.00
2024-02-18T01:38:55.542Z,5.10
2024-02-18T01:41:23.830Z,4.80
2024-02-18T01:43:52.030Z,5.18
2024-02-18T01:46:20.826Z,6.28
2024-02-18T01:48:50.480Z,4.97
2024-02-18T01:51:18.649Z,4.82
2024-02-18T01:53:46.948Z,4.35
2024-02-18T01:56:20.512Z,4.85
2024-02-18T01:58:49.162Z,5.05
2024-02-18T02:01:19.178Z,4.85
2024-02-18T02:03:48.424Z,4.80
2024-02-18T02:06:17.749Z,4.88
2024-02-18T02:08:47.282Z,4.32
2024-02-18T02:11:16.705Z,4.57
2024-02-18T02:13:44.870Z,5.20
2024-02-18T02:16:13.692Z,5.50
2024-02-18T02:18:42.224Z,5.00
2024-02-18T02:21:10.820Z,4.65
2024-02-18T02:23:39.048Z,4.15
2024-02-18T02:26:08.585Z,4.88
2024-02-18T02:28:45.726Z,5.13
2024-02-18T02:31:17.568Z,5.45
2024-02-18T02:33:48.625Z,4.95
2024-02-18T02:36:21.259Z,5.03
2024-02-18T02:38:49.278Z,4.47
2024-02-18T02:41:17.275Z,4.63
2024-02-18T02:43:45.284Z,4.22
2024-02-18T02:46:13.892Z,5.03
2024-02-18T02:48:42.501Z,4.88
2024-02-18T02:51:11.259Z,4.80
2024-02-18T02:53:39.413Z,4.57
2024-02-18T02:56:10.071Z,4.78
2024-02-18T02:58:38.850Z,3.85
2024-02-18T03:01:07.239Z,4.15
2024-02-18T03:03:35.832Z,4.07
2024-02-18T03:06:03.876Z,5.20
2024-02-18T03:08:31.967Z,4.63
2024-02-18T03:11:01.126Z,4.10
2024-02-18T03:13:29.258Z,3.65
2024-02-18T03:15:58.194Z,4.95
2024-02-18T03:18:26.897Z,4.05
2024-02-18T03:20:55.585Z,3.97
2024-02-18T03:23:28.185Z,3.75
2024-02-18T03:25:56.843Z,4.40
2024-02-18T03:28:25.207Z,3.65
2024-02-18T03:30:54.129Z,4.25
2024-02-18T03:33:22.742Z,3.65
2024-02-18T03:35:51.247Z,4.35
2024-02-18T03:38:19.692Z,4.45
2024-02-18T03:40:48.383Z,3.40
2024-02-18T03:43:16.850Z,3.65
2024-02-18T03:45:45.119Z,3.03
2024-02-18T03:48:13.261Z,3.58
2024-02-18T03:50:41.284Z,4.43
2024-02-18T03:53:09.564Z,3.55
2024-02-18T03:55:37.531Z,3.88
2024-02-18T03:58:05.923Z,4.03
2024-02-18T04:00:34.389Z,3.97
2024-02-18T04:03:02.614Z,4.30
2024-02-18T04:05:30.768Z,3.55
2024-02-18T04:07:59.092Z,3.90
2024-02-18T04:10:27.483Z,5.10
2024-02-18T04:12:55.589Z,3.63
2024-02-18T04:15:24.154Z,3.67
2024-02-18T04:17:52.671Z,2.85
2024-02-18T04:20:20.924Z,4.45
2024-02-18T04:22:49.325Z,3.88
2024-02-18T04:25:17.726Z,3.50
2024-02-18T04:27:45.848Z,4.32
2024-02-18T04:30:14.291Z,4.00
2024-02-18T04:32:42.830Z,3.95
2024-02-18T04:35:11.110Z,4.88
2024-02-18T04:37:39.238Z,3.78
2024-02-18T04:40:08.012Z,5.10
2024-02-18T04:42:36.403Z,4.88
2024-02-18T04:45:07.035Z,6.57
2024-02-18T04:47:35.724Z,5.35
2024-02-18T04:50:05.458Z,5.38
2024-02-18T04:52:36.187Z,5.40
2024-02-18T04:55:05.976Z,5.32
2024-02-18T04:57:34.373Z,5.95
2024-02-18T05:00:02.470Z,5.93
2024-02-18T05:02:30.692Z,6.25
2024-02-18T05:04:58.912Z,6.13
2024-02-18T05:07:27.608Z,7.15
2024-02-18T05:09:55.826Z,7.05
2024-02-18T05:12:24.283Z,6.80
2024-02-18T05:14:52.289Z,7.78
2024-02-18T05:17:20.944Z,8.60
2024-02-18T05:19:50.722Z,10.70
2024-02-18T05:22:19.913Z,10.88
2024-02-18T05:24:49.293Z,11.13
2024-02-18T05:27:20.514Z,11.45
2024-02-18T05:29:48.627Z,11.40
2024-02-18T05:32:16.859Z,11.75
2024-02-18T05:34:45.162Z,11.90
2024-02-18T05:37:14.327Z,12.82
2024-02-18T05:39:44.459Z,13.13
2024-02-18T05:42:13.216Z,12.80
2024-02-18T05:44:41.450Z,13.77
2024-02-18T05:47:09.381Z,13.82
2024-02-18T05:49:42.263Z,14.45
2024-02-18T05:52:12.417Z,13.63
2024-02-18T05:54:41.192Z,14.93
2024-02-18T05:57:09.287Z,14.18
2024-02-18T05:59:37.524Z,14.38
2024-02-18T06:02:05.804Z,15.07
2024-02-18T06:04:34.083Z,16.02
2024-02-18T06:07:02.602Z,16.83
2024-02-18T06:09:31.451Z,16.75
2024-02-18T06:11:59.838Z,16.88
2024-02-18T06:14:26.762Z,17.17
2024-02-18T06:16:54.755Z,17.92
2024-02-18T06:19:22.907Z,17.55
2024-02-18T06:21:51.434Z,18.52
2024-02-18T06:24:19.475Z,20.33
2024-02-18T06:26:47.417Z,20.30
2024-02-18T06:29:15.276Z,20.45
2024-02-18T06:31:43.176Z,19.58
2024-02-18T06:34:11.278Z,21.98
2024-02-18T06:36:43.290Z,21.38
2024-02-18T06:39:12.260Z,22.67
2024-02-18T06:41:42.829Z,21.92
2024-02-18T06:44:10.820Z,22.67
2024-02-18T06:46:38.725Z,24.08
2024-02-18T06:49:07.061Z,24.02
2024-02-18T06:51:35.245Z,25.70
2024-02-18T06:54:05.744Z,28.17
2024-02-18T06:56:33.685Z,27.48
2024-02-18T06:59:01.915Z,27.80
2024-02-18T07:01:30.969Z,28.40
2024-02-18T07:03:59.128Z,27.55
2024-02-18T07:06:27.165Z,27.35
2024-02-18T07:08:55.692Z,28.05
2024-02-18T07:11:26.879Z,28.75
2024-02-18T07:13:55.059Z,28.02
2024-02-18T07:16:23.107Z,30.30
2024-02-18T07:18:51.268Z,28.88
2024-02-18T07:21:19.587Z,28.27
2024-02-18T07:23:48.257Z,30.05
2024-02-18T07:26:17.179Z,30.92
2024-02-18T07:28:45.132Z,31.48
2024-02-18T07:31:13.115Z,31.77
2024-02-18T07:33:41.277Z,29.83
2024-02-18T07:36:10.931Z,31.38
2024-02-18T07:38:38.864Z,30.45
2024-02-18T07:41:06.769Z,29.23
2024-02-18T07:43:34.822Z,31.33
2024-02-18T07:46:02.806Z,31.30
2024-02-18T07:48:30.976Z,32.03
2024-02-18T07:50:58.930Z,32.25
2024-02-18T07:53:26.815Z,31.25
2024-02-18T07:55:54.781Z,31.45
2024-02-18T07:58:22.717Z,30.67
2024-02-18T08:00:50.630Z,31.30
2024-02-18T08:03:18.581Z,30.60
2024-02-18T08:05:47.771Z,31.15
2024-02-18T08:08:16.279Z,32.45
2024-02-18T08:10:44.366Z,31.45
2024-02-18T08:13:12.504Z,30.10
2024-02-18T08:15:40.540Z,32.88
2024-02-18T08:18:09.891Z,33.33
2024-02-18T08:20:41.605Z,32.42
2024-02-18T08:23:10.486Z,32.63
2024-02-18T08:25:38.503Z,34.85
2024-02-18T08:28:06.733Z,34.33
2024-02-18T08:30:34.725Z,33.05
2024-02-18T08:33:04.962Z,32.40
2024-02-18T08:35:34.260Z,33.42
2024-02-18T08:38:02.118Z,32.42
2024-02-18T08:40:30.084Z,32.75
2024-02-18T08:42:58.187Z,35.55
2024-02-18T08:45:27.836Z,33.08
2024-02-18T08:47:57.064Z,32.92
2024-02-18T08:50:27.210Z,32.22
2024-02-18T08:52:55.245Z,31.05
2024-02-18T08:55:26.367Z,32.22
2024-02-18T08:57:56.916Z,30.80
2024-02-18T09:00:25.057Z,32.53
2024-02-18T09:02:53.148Z,32.72
2024-02-18T09:05:21.208Z,30.77
2024-02-18T09:07:49.139Z,30.63
2024-02-18T09:10:17.649Z,30.38
2024-02-18T09:12:45.980Z,31.30
2024-02-18T09:15:14.112Z,29.23
2024-02-18T09:17:42.109Z,29.52
2024-02-18T09:20:10.592Z,28.65
2024-02-18T09:22:38.598Z,28.25
2024-02-18T09:25:07.502Z,27.90
2024-02-18T09:27:35.801Z,30.33
2024-02-18T09:30:03.842Z,27.20
2024-02-18T09:32:31.869Z,26.83
2024-02-18T09:34:59.897Z,27.70
2024-02-18T09:37:27.977Z,26.77
2024-02-18T09:39:57.087Z,27.75
2024-02-18T09:42:25.299Z,26.42
2024-02-18T09:44:54.822Z,26.52
2024-02-18T09:47:26.647Z,25.92
2024-02-18T09:49:55.274Z,25.30
2024-02-18T09:52:25.924Z,26.08
2024-02-18T09:54:58.146Z,25.23
2024-02-18T09:57:26.273Z,25.05
2024-02-18T09:59:54.365Z,25.02
2024-02-18T10:02:24.674Z,23.42
2024-02-18T10:04:52.800Z,23.63
2024-02-18T10:07:22.077Z,23.83
2024-02-18T10:09:50.226Z,24.10
2024-02-18T10:12:18.889Z,23.20
2024-02-18T10:15:04.289Z,22.17
2024-02-18T10:17:33.357Z,21.92
2024-02-18T10:20:02.275Z,22.38
2024-02-18T10:22:30.878Z,22.20
2024-02-18T10:24:59.059Z,20.88
2024-02-18T10:27:27.216Z,19.48
2024-02-18T10:29:55.271Z,20.98
2024-02-18T10:32:23.181Z,19.33
2024-02-18T10:34:51.804Z,20.08
2024-02-18T10:37:32.150Z,21.00
2024-02-18T10:40:18.031Z,17.75
2024-02-18T10:42:55.379Z,17.70
2024-02-18T10:45:23.744Z,17.27
2024-02-18T10:47:56.299Z,17.90
2024-02-18T10:50:31.424Z,17.17
2024-02-18T10:53:15.717Z,17.02
2024-02-18T10:56:20.401Z,16.17
2024-02-18T10:59:04.032Z,16.00
2024-02-18T11:04:14.066Z,14.32
2024-02-18T11:06:44.641Z,14.95
2024-02-18T11:09:14.006Z,15.10
2024-02-18T11:11:44.410Z,14.18
2024-02-18T11:14:14.243Z,15.40
2024-02-18T11:16:46.924Z,12.85
2024-02-18T11:19:16.079Z,12.48
2024-02-18T11:21:45.663Z,12.23
2024-02-18T11:24:15.001Z,11.82
2024-02-18T11:26:46.521Z,11.43
2024-02-18T11:29:14.552Z,11.75
2024-02-18T11:31:43.082Z,12.75
2024-02-18T11:34:11.361Z,11.95
2024-02-18T11:36:39.581Z,10.93
2024-02-18T11:39:09.415Z,12.25
2024-02-18T11:41:38.255Z,11.43
2024-02-18T11:44:15.834Z,11.57
2024-02-18T11:46:46.445Z,11.52
2024-02-18T11:49:15.483Z,12.55
2024-02-18T11:51:43.561Z,12.02
2024-02-18T11:54:12.299Z,12.65
2024-02-18T11:56:41.372Z,12.15
2024-02-18T11:59:10.026Z,11.40
2024-02-18T12:01:38.758Z,11.00
2024-02-18T12:04:07.164Z,10.35
2024-02-18T12:06:35.772Z,11.20
2024-02-18T12:09:15.563Z,10.35
2024-02-18T12:11:47.678Z,10.73
2024-02-18T12:14:15.810Z,11.52
2024-02-18T12:16:46.963Z,10.70
2024-02-18T12:19:16.577Z,10.48
2024-02-18T12:21:57.000Z,10.70
2024-02-18T12:24:27.915Z,10.25
2024-02-18T12:26:56.511Z,10.75
2024-02-18T12:29:25.560Z,10.40
2024-02-18T12:31:55.977Z,11.15
2024-02-18T12:34:25.018Z,11.77
2024-02-18T12:36:54.228Z,11.25
2024-02-18T12:39:24.333Z,11.30
2024-02-18T12:41:52.526Z,11.02
2024-02-18T12:45:01.552Z,10.15
2024-02-18T12:47:11.694Z,11.18
2024-02-18T12:49:39.963Z,11.20
2024-02-18T12:52:17.185Z,11.13
2024-02-18T12:54:45.184Z,10.32
2024-02-18T12:57:14.425Z,10.65
2024-02-18T12:59:42.888Z,10.68
2024-02-18T13:02:11.078Z,11.20
2024-02-18T13:04:41.788Z,9.65
2024-02-18T13:07:11.719Z,10.05
2024-02-18T13:09:40.223Z,10.15
2024-02-18T13:12:08.489Z,9.93
2024-02-18T13:14:38.804Z,9.23
2024-02-18T13:17:07.763Z,9.57
2024-02-18T13:19:37.493Z,9.13
2024-02-18T13:22:06.342Z,9.90
2024-02-18T13:24:38.712Z,8.68
2024-02-18T13:27:07.369Z,9.13
2024-02-18T13:29:37.594Z,8.65
2024-02-18T13:32:07.652Z,8.07
2024-02-18T13:34:35.740Z,9.18
2024-02-18T13:37:03.994Z,8.60
2024-02-18T13:39:32.007Z,9.55
2024-02-18T13:42:00.355Z,9.45
2024-02-18T13:44:28.339Z,8.60
2024-02-18T13:46:58.240Z,9.65
2024-02-18T13:49:27.390Z,7.95
2024-02-18T13:51:55.343Z,8.27
2024-02-18T13:54:23.543Z,8.80
2024-02-18T13:56:51.378Z,7.82
2024-02-18T13:59:19.273Z,7.47
2024-02-18T14:01:48.396Z,7.47
2024-02-18T14:04:16.777Z,7.75
2024-02-18T14:06:44.788Z,8.30
2024-02-18T14:09:13.873Z,7.75
2024-02-18T14:11:43.217Z,8.00
2024-02-18T14:14:12.391Z,6.78
2024-02-18T14:16:40.687Z,7.05
2024-02-18T14:19:09.374Z,7.07
2024-02-18T14:21:37.420Z,7.43
2024-02-18T14:24:06.043Z,7.65
2024-02-18T14:34:43.795Z,7.18
2024-02-18T14:37:11.892Z,12.02
2024-02-18T14:39:43.604Z,7.50
2024-02-18T14:42:12.627Z,8.32
2024-02-18T14:44:40.669Z,6.20
2024-02-18T15:24:54.667Z,6.30
2024-02-18T15:51:35.260Z,6.38
2024-02-18T16:21:02.388Z,7.90
2024-02-18T16:23:30.917Z,8.63
2024-02-18T16:25:59.951Z,9.73
2024-02-18T16:28:28.929Z,8.27
2024-02-18T16:33:28.617Z,10.60
2024-02-18T16:35:57.489Z,9.25
2024-02-18T16:38:27.768Z,13.32
2024-02-18T16:40:59.290Z,12.35
2024-02-18T16:43:29.653Z,11.05
2024-02-18T16:45:58.423Z,9.68
2024-02-18T16:48:26.571Z,9.65
2024-02-18T16:50:54.876Z,10.23
2024-02-18T16:53:23.015Z,10.93
2024-02-18T16:55:53.386Z,11.20
2024-02-18T16:58:21.717Z,11.27
2024-02-18T17:00:49.912Z,11.05
2024-02-18T17:03:18.042Z,13.57
2024-02-18T17:05:46.181Z,15.18
2024-02-18T17:08:14.193Z,14.18
2024-02-18T17:10:42.548Z,11.48
2024-02-18T17:13:12.025Z,13.18
2024-02-18T17:15:41.521Z,11.63
2024-02-18T17:18:09.725Z,11.68
2024-02-18T17:20:38.173Z,14.95
2024-02-18T17:23:08.884Z,12.02
2024-02-18T17:25:39.416Z,10.75
2024-02-18T17:28:08.836Z,10.60
2024-02-18T17:30:36.916Z,9.90
2024-02-18T17:33:05.497Z,10.80
2024-02-18T17:35:34.965Z,10.80
2024-02-18T17:38:04.405Z,11.20
2024-02-18T17:40:39.953Z,10.05
2024-02-18T17:43:07.973Z,9.20
2024-02-18T17:45:36.142Z,9.35
2024-02-18T17:48:04.307Z,9.85
2024-02-18T17:50:33.782Z,8.35
2024-02-18T17:53:02.184Z,9.18
2024-02-18T17:55:31.350Z,8.00
2024-02-18T17:57:59.578Z,7.75
2024-02-18T18:00:28.210Z,7.30
2024-02-18T18:02:57.793Z,7.70
2024-02-18T18:05:26.342Z,7.70
2024-02-18T18:07:56.766Z,7.78
2024-02-18T18:10:28.535Z,7.88
2024-02-18T18:12:59.323Z,8.27
2024-02-18T18:15:28.206Z,7.57
2024-02-18T18:17:57.112Z,7.70
2024-02-18T18:20:26.438Z,7.18
2024-02-18T18:22:56.000Z,7.30
2024-02-18T18:25:24.093Z,6.60
2024-02-18T18:27:52.131Z,6.95
2024-02-18T18:30:20.265Z,6.97
2024-02-18T18:32:49.943Z,6.32
2024-02-18T18:35:18.605Z,19.33
2024-02-18T18:37:48.306Z,41.58
2024-02-18T18:40:16.523Z,18.80
2024-02-18T18:42:44.978Z,10.73
2024-02-18T18:45:14.585Z,11.23
2024-02-18T18:47:46.880Z,8.38
2024-02-18T18:50:15.565Z,20.58
2024-02-18T18:52:43.696Z,16.98
2024-02-18T18:55:12.832Z,14.07
2024-02-18T18:57:40.934Z,27.10
2024-02-18T19:00:11.310Z,16.13
2024-02-18T19:02:39.794Z,24.65
2024-02-18T19:05:08.689Z,19.17
2024-02-18T19:07:36.844Z,22.42
2024-02-18T19:10:06.720Z,14.95
2024-02-18T19:12:35.202Z,13.93
2024-02-18T19:15:05.773Z,21.10
2024-02-18T19:17:36.366Z,15.68
2024-02-18T19:20:06.971Z,26.35
2024-02-18T19:22:34.936Z,17.88
2024-02-18T19:25:04.184Z,15.43
2024-02-18T19:27:32.277Z,14.68
2024-02-18T19:30:02.007Z,10.77
2024-02-18T19:32:30.131Z,14.77
2024-02-18T19:34:59.896Z,11.57
2024-02-18T19:37:29.649Z,12.07
2024-02-18T19:39:58.008Z,12.45
2024-02-18T19:42:26.191Z,12.02
2024-02-18T19:44:54.152Z,12.50
2024-02-18T19:47:22.364Z,11.40
2024-02-18T19:49:51.640Z,11.85
2024-02-18T19:52:20.794Z,13.00
2024-02-18T19:54:49.444Z,13.98
2024-02-18T19:57:18.999Z,15.00
2024-02-18T19:59:47.619Z,15.30
2024-02-18T20:02:15.999Z,17.10
2024-02-18T20:04:44.436Z,15.43
2024-02-18T20:07:13.510Z,15.13
2024-02-18T20:09:41.545Z,15.52
2024-02-18T20:12:09.934Z,15.27
2024-02-18T20:14:41.578Z,15.23
2024-02-18T20:17:13.044Z,15.68
2024-02-18T20:19:44.478Z,16.33
2024-02-18T20:22:15.366Z,16.70
2024-02-18T20:24:48.991Z,16.65
2024-02-18T20:27:17.306Z,16.65
2024-02-18T20:29:45.624Z,17.02
2024-02-18T20:32:15.917Z,16.17
2024-02-18T20:34:45.267Z,17.77
2024-02-18T20:37:13.462Z,17.33
2024-02-18T20:39:46.861Z,17.63
2024-02-18T20:42:15.393Z,17.63
2024-02-18T20:44:43.665Z,17.15
2024-02-18T20:47:13.168Z,16.80
2024-02-18T20:49:46.731Z,19.80
2024-02-18T20:52:16.897Z,18.88
2024-02-18T20:54:46.874Z,21.35
2024-02-18T20:57:15.430Z,21.90
2024-02-18T20:59:45.897Z,21.83
2024-02-18T21:02:14.242Z,22.42
2024-02-18T21:04:45.522Z,23.13
2024-02-18T21:07:15.324Z,19.40
2024-02-18T21:09:43.445Z,22.33
2024-02-18T21:12:12.250Z,20.95
2024-02-18T21:14:40.270Z,22.60
2024-02-18T21:17:08.438Z,23.75
2024-02-18T21:19:44.322Z,24.15
2024-02-18T21:22:12.726Z,21.85
2024-02-18T21:24:43.392Z,21.67
2024-02-18T21:27:11.755Z,23.10
2024-02-18T21:29:42.936Z,24.40
2024-02-18T21:32:12.239Z,24.92
2024-02-18T21:34:42.641Z,23.15
2024-02-18T21:37:11.901Z,25.42
2024-02-18T21:39:47.791Z,25.00
2024-02-18T21:42:17.926Z,26.35
2024-02-18T21:44:47.121Z,24.10
2024-02-18T21:47:19.261Z,23.95
2024-02-18T21:49:47.540Z,24.05
2024-02-18T21:52:15.956Z,25.55
2024-02-18T21:54:46.170Z,26.05
2024-02-18T21:57:14.320Z,25.33
2024-02-18T21:59:42.292Z,24.05
2024-02-18T22:02:10.897Z,22.90
2024-02-18T22:04:39.226Z,22.90
2024-02-18T22:07:16.409Z,22.63
2024-02-18T22:09:47.020Z,23.77
2024-02-18T22:12:15.640Z,24.92
2024-02-18T22:14:43.794Z,23.33
2024-02-18T22:17:14.008Z,21.90
2024-02-18T22:19:42.208Z,24.88
2024-02-18T22:22:21.255Z,24.42
2024-02-18T22:24:51.999Z,24.85
2024-02-18T22:27:20.100Z,26.30
2024-02-18T22:29:49.323Z,25.95
2024-02-18T22:32:17.752Z,22.75
2024-02-18T22:34:46.415Z,24.65
2024-02-18T22:37:15.531Z,23.42
2024-02-18T22:39:44.471Z,23.48
2024-02-18T22:42:12.553Z,23.70
2024-02-18T22:44:42.475Z,23.40
2024-02-18T22:47:11.164Z,22.45
2024-02-18T22:49:39.761Z,23.95
2024-02-18T22:52:08.365Z,19.90
2024-02-18T22:54:36.565Z,20.15
2024-02-18T22:57:04.815Z,18.35
2024-02-18T22:59:33.268Z,18.17
2024-02-18T23:02:01.987Z,17.27
2024-02-18T23:04:31.540Z,3.95
2024-02-18T23:07:04.509Z,0.80
2024-02-18T23:09:33.119Z,0.10
2024-02-18T23:12:01.718Z,0.00
2024-02-18T23:14:30.248Z,0.10
2024-02-18T23:16:58.350Z,0.00
2024-02-18T23:19:27.243Z,0.05
2024-02-18T23:21:55.452Z,0.00
2024-02-18T23:24:23.941Z,0.10
2024-02-18T23:26:52.246Z,0.00
2024-02-18T23:29:20.196Z,0.00
2024-02-18T23:31:48.300Z,0.10
2024-02-18T23:34:16.582Z,0.03
2024-02-18T23:36:45.067Z,0.00
2024-02-18T23:39:14.534Z,0.00
2024-02-18T23:41:42.590Z,0.40
2024-02-18T23:44:10.819Z,0.00
2024-02-18T23:46:39.472Z,0.00
2024-02-18T23:49:08.087Z,0.00
2024-02-18T23:51:37.053Z,0.00
2024-02-18T23:54:05.307Z,0.00
2024-02-18T23:56:33.699Z,0.00
2024-02-18T23:59:03.054Z,0.00
